sensor_id;sensor_type;location;lat;lon;timestamp;P1;durP1;ratioP1;P2;durP2;ratioP2
55655;SDS011;41530;52.382;5.270;2023-06-22T00:00:58;3.90;;;1.98;;
55655;SDS011;41530;52.382;5.270;2023-06-22T00:03:25;2.00;;;1.80;;
55655;SDS011;41530;52.382;5.270;2023-06-22T00:05:52;2.85;;;1.90;;
55655;SDS011;41530;52.382;5.270;2023-06-22T00:08:19;2.40;;;1.98;;
55655;SDS011;41530;52.382;5.270;2023-06-22T00:10:46;4.32;;;1.75;;
55655;SDS011;41530;52.382;5.270;2023-06-22T00:13:13;8.88;;;2.15;;
55655;SDS011;41530;52.382;5.270;2023-06-22T00:15:41;2.25;;;1.85;;
55655;SDS011;41530;52.382;5.270;2023-06-22T00:18:08;3.15;;;2.13;;
55655;SDS011;41530;52.382;5.270;2023-06-22T00:20:36;4.07;;;2.28;;
55655;SDS011;41530;52.382;5.270;2023-06-22T00:23:04;2.50;;;2.05;;
55655;SDS011;41530;52.382;5.270;2023-06-22T00:25:35;2.22;;;2.03;;
55655;SDS011;41530;52.382;5.270;2023-06-22T00:28:03;3.50;;;2.42;;
55655;SDS011;41530;52.382;5.270;2023-06-22T00:30:30;2.55;;;2.15;;
55655;SDS011;41530;52.382;5.270;2023-06-22T00:32:58;3.50;;;2.67;;
55655;SDS011;41530;52.382;5.270;2023-06-22T00:35:26;4.40;;;2.45;;
55655;SDS011;41530;52.382;5.270;2023-06-22T00:37:56;5.72;;;2.65;;
55655;SDS011;41530;52.382;5.270;2023-06-22T00:40:31;4.15;;;2.80;;
55655;SDS011;41530;52.382;5.270;2023-06-22T00:42:58;2.13;;;1.83;;
55655;SDS011;41530;52.382;5.270;2023-06-22T00:45:25;4.38;;;2.40;;
55655;SDS011;41530;52.382;5.270;2023-06-22T00:47:54;4.85;;;3.15;;
55655;SDS011;41530;52.382;5.270;2023-06-22T00:50:24;4.03;;;2.88;;
55655;SDS011;41530;52.382;5.270;2023-06-22T00:52:53;3.30;;;2.40;;
55655;SDS011;41530;52.382;5.270;2023-06-22T00:55:25;3.28;;;2.40;;
55655;SDS011;41530;52.382;5.270;2023-06-22T00:57:52;2.83;;;2.42;;
55655;SDS011;41530;52.382;5.270;2023-06-22T01:00:23;2.70;;;2.38;;
55655;SDS011;41530;52.382;5.270;2023-06-22T01:02:51;2.72;;;2.15;;
55655;SDS011;41530;52.382;5.270;2023-06-22T01:05:20;2.88;;;2.40;;
55655;SDS011;41530;52.382;5.270;2023-06-22T01:10:43;3.53;;;2.47;;
55655;SDS011;41530;52.382;5.270;2023-06-22T01:13:35;5.47;;;2.00;;
55655;SDS011;41530;52.382;5.270;2023-06-22T01:16:14;3.03;;;2.03;;
55655;SDS011;41530;52.382;5.270;2023-06-22T01:18:46;4.43;;;2.38;;
55655;SDS011;41530;52.382;5.270;2023-06-22T01:21:16;4.75;;;3.00;;
55655;SDS011;41530;52.382;5.270;2023-06-22T01:29:20;4.88;;;2.53;;
55655;SDS011;41530;52.382;5.270;2023-06-22T01:31:50;1.85;;;1.73;;
55655;SDS011;41530;52.382;5.270;2023-06-22T01:34:21;6.55;;;2.00;;
55655;SDS011;41530;52.382;5.270;2023-06-22T01:36:56;3.97;;;2.33;;
55655;SDS011;41530;52.382;5.270;2023-06-22T01:39:30;6.32;;;2.63;;
55655;SDS011;41530;52.382;5.270;2023-06-22T01:42:00;2.67;;;2.47;;
55655;SDS011;41530;52.382;5.270;2023-06-22T01:44:34;3.88;;;2.42;;
55655;SDS011;41530;52.382;5.270;2023-06-22T01:47:12;5.35;;;2.60;;
55655;SDS011;41530;52.382;5.270;2023-06-22T01:49:45;5.95;;;3.10;;
55655;SDS011;41530;52.382;5.270;2023-06-22T01:52:21;3.15;;;2.78;;
55655;SDS011;41530;52.382;5.270;2023-06-22T01:55:08;4.63;;;2.95;;
55655;SDS011;41530;52.382;5.270;2023-06-22T01:57:49;3.45;;;2.60;;
55655;SDS011;41530;52.382;5.270;2023-06-22T02:00:33;2.78;;;2.38;;
55655;SDS011;41530;52.382;5.270;2023-06-22T02:05:58;3.58;;;2.28;;
55655;SDS011;41530;52.382;5.270;2023-06-22T02:08:34;2.35;;;2.05;;
55655;SDS011;41530;52.382;5.270;2023-06-22T02:11:20;4.43;;;2.65;;
55655;SDS011;41530;52.382;5.270;2023-06-22T02:13:54;4.93;;;2.33;;
55655;SDS011;41530;52.382;5.270;2023-06-22T02:16:26;2.72;;;2.17;;
55655;SDS011;41530;52.382;5.270;2023-06-22T02:19:02;3.13;;;2.33;;
55655;SDS011;41530;52.382;5.270;2023-06-22T02:21:32;5.25;;;2.58;;
55655;SDS011;41530;52.382;5.270;2023-06-22T02:24:06;3.35;;;2.55;;
55655;SDS011;41530;52.382;5.270;2023-06-22T02:26:42;5.15;;;2.63;;
55655;SDS011;41530;52.382;5.270;2023-06-22T02:29:21;5.15;;;2.50;;
55655;SDS011;41530;52.382;5.270;2023-06-22T02:32:00;3.30;;;2.78;;
55655;SDS011;41530;52.382;5.270;2023-06-22T02:34:27;5.47;;;2.78;;
55655;SDS011;41530;52.382;5.270;2023-06-22T02:36:53;8.00;;;2.80;;
55655;SDS011;41530;52.382;5.270;2023-06-22T02:39:34;3.78;;;2.67;;
55655;SDS011;41530;52.382;5.270;2023-06-22T02:42:17;3.95;;;2.70;;
55655;SDS011;41530;52.382;5.270;2023-06-22T02:44:52;3.38;;;2.92;;
55655;SDS011;41530;52.382;5.270;2023-06-22T02:47:23;6.40;;;3.08;;
55655;SDS011;41530;52.382;5.270;2023-06-22T02:53:36;4.60;;;3.65;;
55655;SDS011;41530;52.382;5.270;2023-06-22T02:56:16;4.33;;;2.50;;
55655;SDS011;41530;52.382;5.270;2023-06-22T02:58:54;6.30;;;3.97;;
55655;SDS011;41530;52.382;5.270;2023-06-22T03:01:34;5.88;;;3.60;;
55655;SDS011;41530;52.382;5.270;2023-06-22T03:04:17;7.18;;;3.58;;
55655;SDS011;41530;52.382;5.270;2023-06-22T03:06:50;5.45;;;3.30;;
55655;SDS011;41530;52.382;5.270;2023-06-22T03:09:17;4.97;;;3.38;;
55655;SDS011;41530;52.382;5.270;2023-06-22T03:11:50;5.97;;;2.95;;
55655;SDS011;41530;52.382;5.270;2023-06-22T03:14:31;3.88;;;3.08;;
55655;SDS011;41530;52.382;5.270;2023-06-22T03:17:02;5.15;;;3.65;;
55655;SDS011;41530;52.382;5.270;2023-06-22T03:19:40;5.57;;;3.30;;
55655;SDS011;41530;52.382;5.270;2023-06-22T03:22:14;5.45;;;3.42;;
55655;SDS011;41530;52.382;5.270;2023-06-22T03:24:47;5.18;;;3.08;;
55655;SDS011;41530;52.382;5.270;2023-06-22T03:27:22;5.25;;;2.90;;
55655;SDS011;41530;52.382;5.270;2023-06-22T03:29:50;4.43;;;2.90;;
55655;SDS011;41530;52.382;5.270;2023-06-22T03:32:20;4.20;;;3.20;;
55655;SDS011;41530;52.382;5.270;2023-06-22T03:35:02;5.43;;;3.40;;
55655;SDS011;41530;52.382;5.270;2023-06-22T03:37:38;5.25;;;3.60;;
55655;SDS011;41530;52.382;5.270;2023-06-22T03:40:25;3.67;;;2.45;;
55655;SDS011;41530;52.382;5.270;2023-06-22T03:43:04;2.90;;;2.58;;
55655;SDS011;41530;52.382;5.270;2023-06-22T03:45:49;5.88;;;3.40;;
55655;SDS011;41530;52.382;5.270;2023-06-22T03:48:24;4.93;;;3.13;;
55655;SDS011;41530;52.382;5.270;2023-06-22T03:51:05;3.28;;;2.75;;
55655;SDS011;41530;52.382;5.270;2023-06-22T03:53:35;2.60;;;2.38;;
55655;SDS011;41530;52.382;5.270;2023-06-22T03:56:06;4.43;;;3.20;;
55655;SDS011;41530;52.382;5.270;2023-06-22T03:58:40;3.88;;;2.90;;
55655;SDS011;41530;52.382;5.270;2023-06-22T04:01:13;3.38;;;2.85;;
55655;SDS011;41530;52.382;5.270;2023-06-22T04:03:46;4.28;;;3.30;;
55655;SDS011;41530;52.382;5.270;2023-06-22T04:06:17;3.65;;;2.75;;
55655;SDS011;41530;52.382;5.270;2023-06-22T04:08:45;3.08;;;2.47;;
55655;SDS011;41530;52.382;5.270;2023-06-22T04:11:25;4.55;;;2.97;;
55655;SDS011;41530;52.382;5.270;2023-06-22T04:13:54;3.67;;;3.28;;
55655;SDS011;41530;52.382;5.270;2023-06-22T04:16:24;3.45;;;3.08;;
55655;SDS011;41530;52.382;5.270;2023-06-22T04:18:53;4.07;;;3.20;;
55655;SDS011;41530;52.382;5.270;2023-06-22T04:21:27;3.65;;;2.95;;
55655;SDS011;41530;52.382;5.270;2023-06-22T04:23:53;6.95;;;2.83;;
55655;SDS011;41530;52.382;5.270;2023-06-22T04:26:21;3.85;;;3.35;;
55655;SDS011;41530;52.382;5.270;2023-06-22T04:29:06;5.93;;;2.80;;
55655;SDS011;41530;52.382;5.270;2023-06-22T04:31:46;4.22;;;3.10;;
55655;SDS011;41530;52.382;5.270;2023-06-22T04:34:22;4.78;;;3.60;;
55655;SDS011;41530;52.382;5.270;2023-06-22T04:36:56;3.47;;;2.80;;
55655;SDS011;41530;52.382;5.270;2023-06-22T04:39:34;3.97;;;3.00;;
55655;SDS011;41530;52.382;5.270;2023-06-22T04:42:16;3.75;;;3.15;;
55655;SDS011;41530;52.382;5.270;2023-06-22T04:44:50;4.90;;;3.75;;
55655;SDS011;41530;52.382;5.270;2023-06-22T04:47:22;3.85;;;3.17;;
55655;SDS011;41530;52.382;5.270;2023-06-22T04:49:53;5.30;;;3.25;;
55655;SDS011;41530;52.382;5.270;2023-06-22T04:52:22;3.60;;;2.92;;
55655;SDS011;41530;52.382;5.270;2023-06-22T04:54:56;4.60;;;3.45;;
55655;SDS011;41530;52.382;5.270;2023-06-22T04:57:35;7.85;;;4.07;;
55655;SDS011;41530;52.382;5.270;2023-06-22T05:00:14;5.63;;;3.33;;
55655;SDS011;41530;52.382;5.270;2023-06-22T05:02:46;4.18;;;3.33;;
55655;SDS011;41530;52.382;5.270;2023-06-22T05:05:18;7.68;;;5.50;;
55655;SDS011;41530;52.382;5.270;2023-06-22T05:07:46;8.23;;;5.22;;
55655;SDS011;41530;52.382;5.270;2023-06-22T05:10:28;6.72;;;4.35;;
55655;SDS011;41530;52.382;5.270;2023-06-22T05:13:05;7.20;;;4.70;;
55655;SDS011;41530;52.382;5.270;2023-06-22T05:18:33;8.13;;;4.93;;
55655;SDS011;41530;52.382;5.270;2023-06-22T05:21:34;12.73;;;4.90;;
55655;SDS011;41530;52.382;5.270;2023-06-22T05:27:32;11.10;;;5.63;;
55655;SDS011;41530;52.382;5.270;2023-06-22T05:30:08;6.25;;;3.60;;
55655;SDS011;41530;52.382;5.270;2023-06-22T05:32:44;5.82;;;3.80;;
55655;SDS011;41530;52.382;5.270;2023-06-22T05:35:21;11.75;;;7.97;;
55655;SDS011;41530;52.382;5.270;2023-06-22T05:38:00;8.43;;;5.30;;
55655;SDS011;41530;52.382;5.270;2023-06-22T05:40:30;11.15;;;6.40;;
55655;SDS011;41530;52.382;5.270;2023-06-22T05:43:07;8.85;;;5.72;;
55655;SDS011;41530;52.382;5.270;2023-06-22T05:46:05;10.48;;;7.05;;
55655;SDS011;41530;52.382;5.270;2023-06-22T05:48:40;18.92;;;9.23;;
55655;SDS011;41530;52.382;5.270;2023-06-22T05:51:12;18.75;;;9.13;;
55655;SDS011;41530;52.382;5.270;2023-06-22T05:53:45;21.13;;;9.30;;
55655;SDS011;41530;52.382;5.270;2023-06-22T05:56:20;13.13;;;7.70;;
55655;SDS011;41530;52.382;5.270;2023-06-22T05:58:53;15.25;;;8.85;;
55655;SDS011;41530;52.382;5.270;2023-06-22T06:01:19;23.75;;;10.63;;
55655;SDS011;41530;52.382;5.270;2023-06-22T06:03:52;19.45;;;10.90;;
55655;SDS011;41530;52.382;5.270;2023-06-22T06:06:23;15.25;;;8.93;;
55655;SDS011;41530;52.382;5.270;2023-06-22T06:08:59;16.15;;;8.43;;
55655;SDS011;41530;52.382;5.270;2023-06-22T06:11:30;15.13;;;8.90;;
55655;SDS011;41530;52.382;5.270;2023-06-22T06:14:02;15.98;;;9.63;;
55655;SDS011;41530;52.382;5.270;2023-06-22T06:16:41;11.88;;;7.85;;
55655;SDS011;41530;52.382;5.270;2023-06-22T06:19:11;14.77;;;10.10;;
55655;SDS011;41530;52.382;5.270;2023-06-22T06:21:43;16.55;;;10.30;;
55655;SDS011;41530;52.382;5.270;2023-06-22T06:24:12;12.73;;;9.05;;
55655;SDS011;41530;52.382;5.270;2023-06-22T06:26:48;18.00;;;10.43;;
55655;SDS011;41530;52.382;5.270;2023-06-22T06:29:31;15.68;;;9.18;;
55655;SDS011;41530;52.382;5.270;2023-06-22T06:32:16;15.68;;;10.02;;
55655;SDS011;41530;52.382;5.270;2023-06-22T06:34:51;13.05;;;9.68;;
55655;SDS011;41530;52.382;5.270;2023-06-22T06:37:30;15.68;;;9.45;;
55655;SDS011;41530;52.382;5.270;2023-06-22T06:40:12;12.93;;;7.75;;
55655;SDS011;41530;52.382;5.270;2023-06-22T06:42:46;14.77;;;8.73;;
55655;SDS011;41530;52.382;5.270;2023-06-22T06:45:25;10.48;;;7.32;;
55655;SDS011;41530;52.382;5.270;2023-06-22T06:48:10;15.20;;;9.70;;
55655;SDS011;41530;52.382;5.270;2023-06-22T06:50:42;15.98;;;9.68;;
55655;SDS011;41530;52.382;5.270;2023-06-22T06:53:27;13.35;;;9.75;;
55655;SDS011;41530;52.382;5.270;2023-06-22T06:56:02;13.35;;;7.57;;
55655;SDS011;41530;52.382;5.270;2023-06-22T06:58:36;13.55;;;7.28;;
55655;SDS011;41530;52.382;5.270;2023-06-22T07:01:21;12.05;;;8.98;;
55655;SDS011;41530;52.382;5.270;2023-06-22T07:03:59;12.68;;;8.45;;
55655;SDS011;41530;52.382;5.270;2023-06-22T07:06:55;11.05;;;6.90;;
55655;SDS011;41530;52.382;5.270;2023-06-22T07:09:56;15.18;;;8.75;;
55655;SDS011;41530;52.382;5.270;2023-06-22T07:12:28;13.80;;;8.80;;
55655;SDS011;41530;52.382;5.270;2023-06-22T07:15:13;11.20;;;8.00;;
55655;SDS011;41530;52.382;5.270;2023-06-22T07:17:54;13.10;;;8.35;;
55655;SDS011;41530;52.382;5.270;2023-06-22T07:20:43;13.18;;;8.18;;
55655;SDS011;41530;52.382;5.270;2023-06-22T07:23:27;12.73;;;7.43;;
55655;SDS011;41530;52.382;5.270;2023-06-22T07:26:41;8.00;;;6.18;;
55655;SDS011;41530;52.382;5.270;2023-06-22T07:29:40;7.75;;;5.38;;
55655;SDS011;41530;52.382;5.270;2023-06-22T07:32:12;11.63;;;5.70;;
55655;SDS011;41530;52.382;5.270;2023-06-22T07:34:42;10.75;;;5.63;;
55655;SDS011;41530;52.382;5.270;2023-06-22T07:37:14;8.38;;;5.40;;
55655;SDS011;41530;52.382;5.270;2023-06-22T07:39:56;8.98;;;5.05;;
55655;SDS011;41530;52.382;5.270;2023-06-22T07:42:59;8.38;;;5.43;;
55655;SDS011;41530;52.382;5.270;2023-06-22T07:48:52;11.60;;;7.70;;
55655;SDS011;41530;52.382;5.270;2023-06-22T07:51:42;13.13;;;6.53;;
55655;SDS011;41530;52.382;5.270;2023-06-22T07:54:32;8.27;;;4.93;;
55655;SDS011;41530;52.382;5.270;2023-06-22T07:57:06;10.30;;;5.90;;
55655;SDS011;41530;52.382;5.270;2023-06-22T07:59:36;11.85;;;7.63;;
55655;SDS011;41530;52.382;5.270;2023-06-22T08:02:11;12.07;;;6.45;;
55655;SDS011;41530;52.382;5.270;2023-06-22T08:04:47;10.88;;;7.00;;
55655;SDS011;41530;52.382;5.270;2023-06-22T08:07:48;12.38;;;7.65;;
55655;SDS011;41530;52.382;5.270;2023-06-22T08:10:26;9.50;;;6.55;;
55655;SDS011;41530;52.382;5.270;2023-06-22T08:13:56;9.77;;;5.07;;
55655;SDS011;41530;52.382;5.270;2023-06-22T08:16:48;7.63;;;4.28;;
55655;SDS011;41530;52.382;5.270;2023-06-22T08:22:16;11.63;;;6.30;;
55655;SDS011;41530;52.382;5.270;2023-06-22T08:24:58;11.48;;;5.72;;
55655;SDS011;41530;52.382;5.270;2023-06-22T08:27:25;7.93;;;4.93;;
55655;SDS011;41530;52.382;5.270;2023-06-22T08:29:59;7.43;;;4.82;;
55655;SDS011;41530;52.382;5.270;2023-06-22T08:32:30;7.57;;;5.38;;
55655;SDS011;41530;52.382;5.270;2023-06-22T08:35:00;10.90;;;6.20;;
55655;SDS011;41530;52.382;5.270;2023-06-22T08:37:38;11.18;;;5.57;;
55655;SDS011;41530;52.382;5.270;2023-06-22T08:43:10;13.20;;;6.53;;
55655;SDS011;41530;52.382;5.270;2023-06-22T08:45:47;8.77;;;6.00;;
55655;SDS011;41530;52.382;5.270;2023-06-22T08:48:21;8.93;;;4.90;;
55655;SDS011;41530;52.382;5.270;2023-06-22T08:50:49;6.97;;;4.88;;
55655;SDS011;41530;52.382;5.270;2023-06-22T08:53:19;9.52;;;5.03;;
55655;SDS011;41530;52.382;5.270;2023-06-22T08:55:54;8.02;;;4.50;;
55655;SDS011;41530;52.382;5.270;2023-06-22T08:58:43;4.95;;;3.20;;
55655;SDS011;41530;52.382;5.270;2023-06-22T09:01:14;7.15;;;4.13;;
55655;SDS011;41530;52.382;5.270;2023-06-22T09:04:01;5.72;;;3.50;;
55655;SDS011;41530;52.382;5.270;2023-06-22T09:06:53;8.10;;;3.97;;
55655;SDS011;41530;52.382;5.270;2023-06-22T09:09:36;15.60;;;4.38;;
55655;SDS011;41530;52.382;5.270;2023-06-22T09:12:19;7.57;;;4.75;;
55655;SDS011;41530;52.382;5.270;2023-06-22T09:15:14;7.53;;;5.10;;
55655;SDS011;41530;52.382;5.270;2023-06-22T09:18:05;4.07;;;2.92;;
55655;SDS011;41530;52.382;5.270;2023-06-22T09:20:34;5.68;;;3.05;;
55655;SDS011;41530;52.382;5.270;2023-06-22T09:23:07;5.47;;;3.38;;
55655;SDS011;41530;52.382;5.270;2023-06-22T09:25:35;5.80;;;3.83;;
55655;SDS011;41530;52.382;5.270;2023-06-22T09:28:12;6.40;;;2.92;;
55655;SDS011;41530;52.382;5.270;2023-06-22T09:30:53;6.97;;;3.47;;
55655;SDS011;41530;52.382;5.270;2023-06-22T09:33:27;5.30;;;3.90;;
55655;SDS011;41530;52.382;5.270;2023-06-22T09:35:54;7.38;;;3.90;;
55655;SDS011;41530;52.382;5.270;2023-06-22T09:38:55;8.73;;;3.83;;
55655;SDS011;41530;52.382;5.270;2023-06-22T09:41:33;8.63;;;3.83;;
55655;SDS011;41530;52.382;5.270;2023-06-22T09:44:02;6.10;;;3.50;;
55655;SDS011;41530;52.382;5.270;2023-06-22T09:46:43;4.07;;;2.80;;
55655;SDS011;41530;52.382;5.270;2023-06-22T09:49:17;8.05;;;2.92;;
55655;SDS011;41530;52.382;5.270;2023-06-22T09:55:20;8.60;;;3.10;;
55655;SDS011;41530;52.382;5.270;2023-06-22T09:57:50;9.07;;;3.85;;
55655;SDS011;41530;52.382;5.270;2023-06-22T10:00:20;6.78;;;3.88;;
55655;SDS011;41530;52.382;5.270;2023-06-22T10:03:09;5.57;;;3.50;;
55655;SDS011;41530;52.382;5.270;2023-06-22T10:06:00;4.43;;;2.78;;
55655;SDS011;41530;52.382;5.270;2023-06-22T10:08:32;6.43;;;2.95;;
55655;SDS011;41530;52.382;5.270;2023-06-22T10:11:03;4.28;;;2.83;;
55655;SDS011;41530;52.382;5.270;2023-06-22T10:13:57;5.88;;;3.35;;
55655;SDS011;41530;52.382;5.270;2023-06-22T10:16:29;5.50;;;3.40;;
55655;SDS011;41530;52.382;5.270;2023-06-22T10:19:22;4.65;;;2.97;;
55655;SDS011;41530;52.382;5.270;2023-06-22T10:22:00;4.20;;;2.63;;
55655;SDS011;41530;52.382;5.270;2023-06-22T10:24:44;9.38;;;4.22;;
55655;SDS011;41530;52.382;5.270;2023-06-22T10:27:19;6.80;;;3.30;;
55655;SDS011;41530;52.382;5.270;2023-06-22T10:30:08;7.95;;;3.20;;
55655;SDS011;41530;52.382;5.270;2023-06-22T10:32:45;5.75;;;4.07;;
55655;SDS011;41530;52.382;5.270;2023-06-22T10:35:22;5.07;;;3.67;;
55655;SDS011;41530;52.382;5.270;2023-06-22T10:38:01;6.22;;;3.50;;
55655;SDS011;41530;52.382;5.270;2023-06-22T10:40:46;6.07;;;3.40;;
55655;SDS011;41530;52.382;5.270;2023-06-22T10:43:26;5.53;;;3.70;;
55655;SDS011;41530;52.382;5.270;2023-06-22T10:46:13;6.57;;;3.10;;
55655;SDS011;41530;52.382;5.270;2023-06-22T10:48:57;5.63;;;3.75;;
55655;SDS011;41530;52.382;5.270;2023-06-22T10:51:25;6.57;;;3.03;;
55655;SDS011;41530;52.382;5.270;2023-06-22T10:54:01;4.88;;;3.17;;
55655;SDS011;41530;52.382;5.270;2023-06-22T10:56:58;7.32;;;2.90;;
55655;SDS011;41530;52.382;5.270;2023-06-22T10:59:50;8.50;;;3.15;;
55655;SDS011;41530;52.382;5.270;2023-06-22T11:02:23;7.32;;;3.80;;
55655;SDS011;41530;52.382;5.270;2023-06-22T11:05:02;7.43;;;3.83;;
55655;SDS011;41530;52.382;5.270;2023-06-22T11:07:42;6.70;;;3.60;;
55655;SDS011;41530;52.382;5.270;2023-06-22T11:10:18;6.35;;;3.42;;
55655;SDS011;41530;52.382;5.270;2023-06-22T11:12:53;5.45;;;4.32;;
55655;SDS011;41530;52.382;5.270;2023-06-22T11:15:47;7.45;;;3.85;;
55655;SDS011;41530;52.382;5.270;2023-06-22T11:18:21;7.40;;;4.00;;
55655;SDS011;41530;52.382;5.270;2023-06-22T11:21:32;6.55;;;3.53;;
55655;SDS011;41530;52.382;5.270;2023-06-22T11:24:13;5.78;;;3.55;;
55655;SDS011;41530;52.382;5.270;2023-06-22T11:26:43;6.45;;;3.70;;
55655;SDS011;41530;52.382;5.270;2023-06-22T11:32:12;5.18;;;3.30;;
55655;SDS011;41530;52.382;5.270;2023-06-22T11:34:41;3.88;;;3.38;;
55655;SDS011;41530;52.382;5.270;2023-06-22T11:37:17;6.50;;;3.70;;
55655;SDS011;41530;52.382;5.270;2023-06-22T11:40:05;6.07;;;3.83;;
55655;SDS011;41530;52.382;5.270;2023-06-22T11:48:10;6.05;;;3.10;;
55655;SDS011;41530;52.382;5.270;2023-06-22T11:50:56;4.63;;;3.60;;
55655;SDS011;41530;52.382;5.270;2023-06-22T11:53:40;5.88;;;3.25;;
55655;SDS011;41530;52.382;5.270;2023-06-22T11:56:12;5.50;;;2.78;;
55655;SDS011;41530;52.382;5.270;2023-06-22T11:59:09;5.55;;;3.00;;
55655;SDS011;41530;52.382;5.270;2023-06-22T12:01:41;5.38;;;3.78;;
55655;SDS011;41530;52.382;5.270;2023-06-22T12:07:37;7.50;;;3.45;;
55655;SDS011;41530;52.382;5.270;2023-06-22T12:10:07;4.85;;;2.80;;
55655;SDS011;41530;52.382;5.270;2023-06-22T12:12:50;3.85;;;2.83;;
55655;SDS011;41530;52.382;5.270;2023-06-22T12:15:39;5.22;;;2.58;;
55655;SDS011;41530;52.382;5.270;2023-06-22T12:18:14;5.30;;;2.50;;
55655;SDS011;41530;52.382;5.270;2023-06-22T12:23:46;2.70;;;2.45;;
55655;SDS011;41530;52.382;5.270;2023-06-22T12:26:15;4.57;;;2.42;;
55655;SDS011;41530;52.382;5.270;2023-06-22T12:28:53;6.40;;;3.28;;
55655;SDS011;41530;52.382;5.270;2023-06-22T12:31:30;5.03;;;2.70;;
55655;SDS011;41530;52.382;5.270;2023-06-22T12:34:10;4.15;;;2.83;;
55655;SDS011;41530;52.382;5.270;2023-06-22T12:36:41;5.30;;;2.83;;
55655;SDS011;41530;52.382;5.270;2023-06-22T12:39:10;4.35;;;2.50;;
55655;SDS011;41530;52.382;5.270;2023-06-22T12:41:43;7.63;;;2.90;;
55655;SDS011;41530;52.382;5.270;2023-06-22T12:44:10;4.10;;;2.95;;
55655;SDS011;41530;52.382;5.270;2023-06-22T12:46:49;4.60;;;2.63;;
55655;SDS011;41530;52.382;5.270;2023-06-22T12:49:17;3.40;;;2.65;;
55655;SDS011;41530;52.382;5.270;2023-06-22T12:51:49;4.45;;;2.85;;
55655;SDS011;41530;52.382;5.270;2023-06-22T12:54:22;2.65;;;2.40;;
55655;SDS011;41530;52.382;5.270;2023-06-22T12:57:14;7.25;;;2.92;;
55655;SDS011;41530;52.382;5.270;2023-06-22T13:02:42;4.03;;;2.60;;
55655;SDS011;41530;52.382;5.270;2023-06-22T13:05:40;3.25;;;2.60;;
55655;SDS011;41530;52.382;5.270;2023-06-22T13:08:17;4.88;;;2.72;;
55655;SDS011;41530;52.382;5.270;2023-06-22T13:11:22;6.00;;;2.63;;
55655;SDS011;41530;52.382;5.270;2023-06-22T13:13:59;5.05;;;2.97;;
55655;SDS011;41530;52.382;5.270;2023-06-22T13:16:45;5.13;;;2.55;;
55655;SDS011;41530;52.382;5.270;2023-06-22T13:19:28;6.38;;;3.28;;
55655;SDS011;41530;52.382;5.270;2023-06-22T13:22:32;3.83;;;2.60;;
55655;SDS011;41530;52.382;5.270;2023-06-22T13:25:29;5.55;;;3.00;;
55655;SDS011;41530;52.382;5.270;2023-06-22T13:28:22;3.50;;;2.85;;
55655;SDS011;41530;52.382;5.270;2023-06-22T13:31:04;3.28;;;2.67;;
55655;SDS011;41530;52.382;5.270;2023-06-22T13:33:50;4.80;;;3.38;;
55655;SDS011;41530;52.382;5.270;2023-06-22T13:36:28;5.55;;;3.30;;
55655;SDS011;41530;52.382;5.270;2023-06-22T13:39:10;5.50;;;3.53;;
55655;SDS011;41530;52.382;5.270;2023-06-22T13:41:54;6.90;;;4.30;;
55655;SDS011;41530;52.382;5.270;2023-06-22T14:40:50;8.32;;;5.18;;
55655;SDS011;41530;52.382;5.270;2023-06-22T14:43:37;6.80;;;3.95;;
55655;SDS011;41530;52.382;5.270;2023-06-22T14:46:03;6.43;;;4.50;;
55655;SDS011;41530;52.382;5.270;2023-06-22T14:48:30;6.75;;;4.22;;
55655;SDS011;41530;52.382;5.270;2023-06-22T14:50:57;8.00;;;4.30;;
55655;SDS011;41530;52.382;5.270;2023-06-22T14:53:23;9.35;;;5.60;;
55655;SDS011;41530;52.382;5.270;2023-06-22T14:55:50;7.47;;;5.25;;
55655;SDS011;41530;52.382;5.270;2023-06-22T14:58:17;8.30;;;5.38;;
55655;SDS011;41530;52.382;5.270;2023-06-22T15:00:44;8.45;;;5.60;;
55655;SDS011;41530;52.382;5.270;2023-06-22T15:03:10;5.65;;;3.80;;
55655;SDS011;41530;52.382;5.270;2023-06-22T15:05:45;5.15;;;3.72;;
55655;SDS011;41530;52.382;5.270;2023-06-22T15:08:12;4.65;;;3.50;;
55655;SDS011;41530;52.382;5.270;2023-06-22T15:10:39;5.13;;;3.28;;
55655;SDS011;41530;52.382;5.270;2023-06-22T15:13:05;3.90;;;3.03;;
55655;SDS011;41530;52.382;5.270;2023-06-22T15:15:32;9.90;;;3.92;;
55655;SDS011;41530;52.382;5.270;2023-06-22T15:17:59;5.45;;;3.10;;
55655;SDS011;41530;52.382;5.270;2023-06-22T15:20:27;3.83;;;2.85;;
55655;SDS011;41530;52.382;5.270;2023-06-22T15:22:54;5.97;;;2.90;;
55655;SDS011;41530;52.382;5.270;2023-06-22T15:25:20;7.28;;;3.58;;
55655;SDS011;41530;52.382;5.270;2023-06-22T15:27:47;3.80;;;2.53;;
55655;SDS011;41530;52.382;5.270;2023-06-22T15:30:14;7.90;;;3.40;;
55655;SDS011;41530;52.382;5.270;2023-06-22T15:32:44;5.35;;;3.30;;
55655;SDS011;41530;52.382;5.270;2023-06-22T15:35:11;5.03;;;3.13;;
55655;SDS011;41530;52.382;5.270;2023-06-22T15:37:38;6.40;;;3.38;;
55655;SDS011;41530;52.382;5.270;2023-06-22T15:40:05;5.20;;;3.25;;
55655;SDS011;41530;52.382;5.270;2023-06-22T15:42:32;6.15;;;3.50;;
55655;SDS011;41530;52.382;5.270;2023-06-22T15:44:58;8.25;;;4.45;;
55655;SDS011;41530;52.382;5.270;2023-06-22T15:47:25;7.47;;;4.10;;
55655;SDS011;41530;52.382;5.270;2023-06-22T15:49:52;4.28;;;3.50;;
55655;SDS011;41530;52.382;5.270;2023-06-22T15:52:18;5.93;;;3.40;;
55655;SDS011;41530;52.382;5.270;2023-06-22T15:54:45;4.88;;;3.50;;
55655;SDS011;41530;52.382;5.270;2023-06-22T15:57:12;7.03;;;3.63;;
55655;SDS011;41530;52.382;5.270;2023-06-22T15:59:39;6.55;;;3.45;;
55655;SDS011;41530;52.382;5.270;2023-06-22T16:02:06;7.90;;;4.03;;
55655;SDS011;41530;52.382;5.270;2023-06-22T16:04:34;4.20;;;3.78;;
55655;SDS011;41530;52.382;5.270;2023-06-22T16:07:02;4.70;;;3.97;;
55655;SDS011;41530;52.382;5.270;2023-06-22T16:09:29;5.43;;;2.92;;
55655;SDS011;41530;52.382;5.270;2023-06-22T16:11:57;3.88;;;2.60;;
55655;SDS011;41530;52.382;5.270;2023-06-22T16:14:23;5.40;;;2.70;;
55655;SDS011;41530;52.382;5.270;2023-06-22T16:16:50;4.05;;;2.60;;
55655;SDS011;41530;52.382;5.270;2023-06-22T16:19:17;5.00;;;2.58;;
55655;SDS011;41530;52.382;5.270;2023-06-22T16:21:44;3.97;;;2.60;;
55655;SDS011;41530;52.382;5.270;2023-06-22T16:24:11;5.18;;;3.00;;
55655;SDS011;41530;52.382;5.270;2023-06-22T16:26:38;3.92;;;2.53;;
55655;SDS011;41530;52.382;5.270;2023-06-22T16:29:06;2.65;;;2.40;;
55655;SDS011;41530;52.382;5.270;2023-06-22T16:31:33;3.97;;;2.72;;
55655;SDS011;41530;52.382;5.270;2023-06-22T16:34:01;3.10;;;2.80;;
55655;SDS011;41530;52.382;5.270;2023-06-22T16:36:29;3.22;;;2.92;;
55655;SDS011;41530;52.382;5.270;2023-06-22T16:38:55;3.75;;;3.00;;
55655;SDS011;41530;52.382;5.270;2023-06-22T16:41:22;4.38;;;2.72;;
55655;SDS011;41530;52.382;5.270;2023-06-22T16:43:49;6.57;;;3.17;;
55655;SDS011;41530;52.382;5.270;2023-06-22T16:46:16;5.47;;;2.92;;
55655;SDS011;41530;52.382;5.270;2023-06-22T16:48:44;3.42;;;3.13;;
55655;SDS011;41530;52.382;5.270;2023-06-22T16:51:18;6.03;;;3.35;;
55655;SDS011;41530;52.382;5.270;2023-06-22T16:53:45;4.78;;;3.22;;
55655;SDS011;41530;52.382;5.270;2023-06-22T16:56:19;5.47;;;3.47;;
55655;SDS011;41530;52.382;5.270;2023-06-22T16:58:50;4.18;;;3.50;;
55655;SDS011;41530;52.382;5.270;2023-06-22T17:01:32;9.77;;;4.32;;
55655;SDS011;41530;52.382;5.270;2023-06-22T17:04:06;10.35;;;5.38;;
55655;SDS011;41530;52.382;5.270;2023-06-22T17:06:36;14.25;;;5.05;;
55655;SDS011;41530;52.382;5.270;2023-06-22T17:09:10;12.35;;;4.65;;
55655;SDS011;41530;52.382;5.270;2023-06-22T17:11:39;10.10;;;4.85;;
55655;SDS011;41530;52.382;5.270;2023-06-22T17:14:06;5.57;;;4.35;;
55655;SDS011;41530;52.382;5.270;2023-06-22T17:16:33;6.75;;;3.63;;
55655;SDS011;41530;52.382;5.270;2023-06-22T17:19:01;4.45;;;3.20;;
55655;SDS011;41530;52.382;5.270;2023-06-22T17:21:31;5.05;;;3.20;;
55655;SDS011;41530;52.382;5.270;2023-06-22T17:24:01;6.32;;;2.90;;